Time;durP1;ratioP1;P1;durP2;ratioP2;P2;SDS_P1;SDS_P2;PMS_P1;PMS_P2;Temp;Humidity;BMP_temperature;BMP_pressure;BME280_temperature;BME280_humidity;BME280_pressure;Samples;Min_cycle;Max_cycle;Signal;HPM_P1;HPM_P2
2021/12/17 00:04:58;;;;;;;45.75;24.95;;;5.30;99.90;;;;;;5023147;28;20029;-83
2021/12/17 00:07:26;;;;;;;45.00;23.83;;;5.50;99.90;;;;;;5039136;28;20095;-82
2021/12/17 00:10:05;;;;;;;43.13;26.33;;;5.60;99.90;;;;;;5025554;28;20026;-85
2021/12/17 00:12:31;;;;;;;39.83;25.17;;;5.70;99.90;;;;;;5009372;28;20489;-84
2021/12/17 00:15:00;;;;;;;44.08;25.90;;;5.80;99.90;;;;;;5021812;28;20097;-84
2021/12/17 00:17:31;;;;;;;40.35;24.45;;;5.90;99.90;;;;;;5022372;28;20069;-84
2021/12/17 00:53:18;;;;;;;40.38;22.92;;;5.50;99.90;;;;;;5016697;28;20030;-83
2021/12/17 00:55:43;;;;;;;38.45;22.52;;;5.40;99.90;;;;;;5001842;28;20032;-82
2021/12/17 00:58:09;;;;;;;38.83;23.55;;;5.20;99.90;;;;;;5036886;28;20034;-82
2021/12/17 01:00:35;;;;;;;39.20;21.83;;;5.30;99.90;;;;;;5034503;28;20038;-84
2021/12/17 01:03:01;;;;;;;36.50;22.90;;;5.30;99.90;;;;;;5010372;28;20486;-84
2021/12/17 01:05:28;;;;;;;40.63;24.73;;;5.30;99.90;;;;;;5013084;28;20029;-82
2021/12/17 01:07:56;;;;;;;36.42;22.10;;;5.40;99.90;;;;;;5005048;28;20034;-84
2021/12/17 01:10:26;;;;;;;36.22;21.13;;;5.50;99.90;;;;;;5017985;28;20037;-83
2021/12/17 01:12:52;;;;;;;36.38;22.17;;;5.60;99.90;;;;;;5029625;28;20036;-82
2021/12/17 01:15:19;;;;;;;64.85;36.28;;;5.70;99.90;;;;;;5018048;28;20445;-83
2021/12/17 01:17:48;;;;;;;73.70;40.78;;;5.70;99.90;;;;;;5017804;28;20029;-82
2021/12/17 01:36:30;;;;;;;40.38;23.02;;;5.90;99.90;;;;;;5036099;28;20029;-81
2021/12/17 01:42:06;;;;;;;29.30;19.70;;;5.90;99.90;;;;;;4940287;28;20119;-84
2021/12/17 01:44:33;;;;;;;;;;;6.00;99.90;;;;;;5003170;28;20034;-83
2021/12/17 01:47:00;;;;;;;31.15;19.05;;;6.00;99.90;;;;;;5017843;28;19921;-83
2021/12/17 02:00:12;;;;;;;30.30;20.42;;;5.80;99.90;;;;;;5041912;28;20042;-82
2021/12/17 02:02:43;;;;;;;29.75;19.92;;;5.80;99.90;;;;;;5013863;28;20052;-81
2021/12/17 02:05:10;;;;;;;30.70;19.30;;;5.80;99.90;;;;;;5023381;28;20119;-83
2021/12/17 02:07:37;;;;;;;30.38;19.90;;;5.70;99.90;;;;;;5037762;28;20064;-82
2021/12/17 02:12:55;;;;;;;29.02;19.80;;;5.70;99.90;;;;;;5032258;28;20021;-79
2021/12/17 02:28:44;;;;;;;35.20;21.17;;;5.70;99.90;;;;;;5038201;28;20524;-81
2021/12/17 02:29:50;;;;;;;34.55;20.83;;;5.60;99.90;;;;;;5041289;28;20111;-79
2021/12/17 02:32:08;;;;;;;35.30;21.35;;;5.50;99.90;;;;;;5018065;28;20037;-81
2021/12/17 02:37:13;;;;;;;35.53;21.65;;;5.50;99.90;;;;;;5041656;28;20080;-79
2021/12/17 02:47:34;;;;;;;37.33;21.13;;;5.30;99.90;;;;;;5040526;28;20021;-83
2021/12/17 02:50:00;;;;;;;40.97;21.40;;;5.30;99.90;;;;;;5022292;28;20127;-82
2021/12/17 02:52:29;;;;;;;35.03;20.88;;;5.30;99.90;;;;;;5023020;28;20029;-82
2021/12/17 02:54:57;;;;;;;35.78;19.95;;;5.30;99.90;;;;;;5022167;28;20168;-82
2021/12/17 02:57:24;;;;;;;29.77;18.55;;;5.30;99.90;;;;;;5049248;28;20033;-81
2021/12/17 02:59:51;;;;;;;32.47;18.95;;;5.30;99.90;;;;;;5020671;28;20029;-81
2021/12/17 03:02:18;;;;;;;32.33;19.30;;;5.40;99.90;;;;;;5020551;28;20049;-81
2021/12/17 03:04:44;;;;;;;31.70;19.77;;;5.30;99.90;;;;;;5020518;28;20044;-81
2021/12/17 03:07:12;;;;;;;30.70;18.92;;;5.20;99.90;;;;;;5036664;28;20061;-82
2021/12/17 03:10:00;;;;;;;33.63;20.17;;;5.20;99.90;;;;;;5004701;28;20065;-82
2021/12/17 03:12:34;;;;;;;35.25;20.83;;;5.10;99.90;;;;;;5038655;28;20041;-84
2021/12/17 03:15:13;;;;;;;33.38;20.75;;;5.00;99.90;;;;;;5021894;28;20034;-83
2021/12/17 03:23:32;;;;;;;30.33;19.08;;;4.90;99.90;;;;;;5037718;28;20117;-83
2021/12/17 03:26:05;;;;;;;32.42;19.70;;;4.90;99.90;;;;;;5021865;28;20079;-84
2021/12/17 03:28:32;;;;;;;33.08;21.08;;;4.80;99.90;;;;;;5004475;28;20082;-83
2021/12/17 03:30:58;;;;;;;33.03;21.23;;;4.70;99.90;;;;;;5025668;28;20037;-82
2021/12/17 03:33:24;;;;;;;33.60;20.35;;;4.50;99.90;;;;;;5022287;28;20033;-82
2021/12/17 03:35:51;;;;;;;39.05;21.73;;;4.50;99.90;;;;;;5008285;28;20049;-82
2021/12/17 03:38:17;;;;;;;34.47;20.20;;;4.50;99.90;;;;;;5023301;28;20033;-80
2021/12/17 03:40:44;;;;;;;33.72;20.40;;;4.40;99.90;;;;;;5021509;28;20380;-83
2021/12/17 03:43:12;;;;;;;32.58;20.08;;;4.50;99.90;;;;;;5020615;28;20503;-84
2021/12/17 03:45:40;;;;;;;33.80;19.55;;;4.60;99.90;;;;;;5022174;28;20026;-82
2021/12/17 03:48:06;;;;;;;33.97;19.80;;;4.60;99.90;;;;;;5038703;28;20377;-85
2021/12/17 03:50:36;;;;;;;32.45;20.10;;;4.70;99.90;;;;;;5023928;28;20034;-84
2021/12/17 03:53:06;;;;;;;34.85;20.98;;;4.60;99.90;;;;;;5009343;28;20108;-83
2021/12/17 03:55:32;;;;;;;34.42;20.08;;;4.50;99.90;;;;;;5023039;28;20034;-83
2021/12/17 03:58:01;;;;;;;29.02;18.33;;;4.40;99.90;;;;;;5039162;28;20263;-83
2021/12/17 04:00:28;;;;;;;32.55;19.08;;;4.50;99.90;;;;;;5023218;28;20033;-83
2021/12/17 04:02:54;;;;;;;34.13;19.02;;;4.70;99.90;;;;;;5036983;28;20040;-83
2021/12/17 04:05:20;;;;;;;29.65;18.15;;;4.80;99.90;;;;;;5041690;28;20053;-81
2021/12/17 04:07:46;;;;;;;27.98;17.33;;;5.00;99.90;;;;;;5022364;28;20053;-83
2021/12/17 04:10:12;;;;;;;28.08;17.65;;;5.10;99.90;;;;;;5023224;28;20477;-82
2021/12/17 04:12:53;;;;;;;29.95;18.13;;;5.10;99.90;;;;;;5022339;28;20106;-82
2021/12/17 04:15:19;;;;;;;32.47;18.67;;;5.20;99.90;;;;;;5022222;28;20038;-82
2021/12/17 04:17:52;;;;;;;30.90;18.67;;;5.20;99.90;;;;;;5027130;28;20029;-82
2021/12/17 04:20:18;;;;;;;32.78;19.55;;;5.10;99.90;;;;;;5005869;28;20025;-82
2021/12/17 04:22:46;;;;;;;31.38;18.58;;;5.10;99.90;;;;;;5042526;28;20095;-82
2021/12/17 04:25:11;;;;;;;31.73;18.00;;;5.20;99.90;;;;;;5022441;28;20026;-82
2021/12/17 04:27:37;;;;;;;30.30;18.00;;;5.20;99.90;;;;;;5022385;28;20477;-82
2021/12/17 04:30:03;;;;;;;35.60;20.95;;;5.30;99.90;;;;;;5005705;28;20374;-82
2021/12/17 04:32:29;;;;;;;29.85;18.20;;;5.20;99.90;;;;;;5021958;28;20045;-82
2021/12/17 04:34:54;;;;;;;33.40;18.05;;;5.30;99.90;;;;;;5006220;28;20031;-83
2021/12/17 04:37:20;;;;;;;30.85;18.70;;;5.40;99.90;;;;;;5039156;28;20033;-82
2021/12/17 04:39:46;;;;;;;35.90;19.85;;;5.40;99.90;;;;;;5007039;28;20464;-82
2021/12/17 04:42:18;;;;;;;30.20;17.98;;;5.30;99.90;;;;;;5006594;28;20103;-83
2021/12/17 04:44:52;;;;;;;31.20;18.60;;;5.30;99.90;;;;;;5007358;28;20084;-81
2021/12/17 04:57:42;;;;;;;32.88;19.15;;;5.00;99.90;;;;;;5038434;28;20025;-85
2021/12/17 05:00:17;;;;;;;26.20;16.88;;;4.90;99.90;;;;;;5021234;28;20034;-82
2021/12/17 05:02:46;;;;;;;34.13;19.70;;;4.90;99.90;;;;;;5020368;28;20037;-86
2021/12/17 05:05:13;;;;;;;32.22;17.15;;;4.90;99.90;;;;;;5036314;28;20037;-83
2021/12/17 05:07:46;;;;;;;28.27;17.58;;;4.80;99.90;;;;;;5037437;28;20382;-81
2021/12/17 05:18:31;;;;;;;33.53;20.75;;;4.70;99.90;;;;;;5038874;28;20068;-83
2021/12/17 05:21:04;;;;;;;32.15;17.83;;;4.80;99.90;;;;;;5006942;28;20037;-83
2021/12/17 05:23:36;;;;;;;31.60;18.00;;;4.70;99.90;;;;;;5046881;28;20033;-82
2021/12/17 05:26:05;;;;;;;31.30;16.95;;;4.70;99.90;;;;;;5016031;28;20044;-85
2021/12/17 05:28:31;;;;;;;33.65;18.75;;;4.70;99.90;;;;;;5021538;28;20458;-82
2021/12/17 05:30:56;;;;;;;33.42;19.00;;;4.70;99.90;;;;;;5040632;28;20065;-85
2021/12/17 05:33:24;;;;;;;30.52;18.52;;;4.70;99.90;;;;;;5023366;28;20025;-83
2021/12/17 05:35:50;;;;;;;33.17;18.75;;;4.70;99.90;;;;;;5045687;28;20045;-83
2021/12/17 05:38:18;;;;;;;32.22;18.67;;;4.60;99.90;;;;;;5026081;28;20054;-84
2021/12/17 05:40:45;;;;;;;35.33;20.27;;;4.70;99.90;;;;;;5024234;28;20405;-84
2021/12/17 05:43:12;;;;;;;33.28;20.52;;;4.70;99.90;;;;;;5024456;28;20030;-82
2021/12/17 05:48:18;;;;;;;30.50;18.80;;;4.80;99.90;;;;;;5043684;28;20032;-81
2021/12/17 05:50:45;;;;;;;48.75;26.45;;;4.80;99.90;;;;;;5025734;28;20362;-82
2021/12/17 05:53:11;;;;;;;28.83;18.05;;;4.80;99.90;;;;;;5042609;28;20452;-82
2021/12/17 05:55:37;;;;;;;31.85;17.75;;;4.70;99.90;;;;;;5041938;28;20064;-81
2021/12/17 05:58:04;;;;;;;35.90;18.67;;;4.60;99.90;;;;;;5041106;28;20029;-81
2021/12/17 06:00:31;;;;;;;28.38;18.10;;;4.60;99.90;;;;;;5024305;28;20064;-82
2021/12/17 06:02:58;;;;;;;30.08;18.15;;;4.50;99.90;;;;;;5026075;28;20033;-81
2021/12/17 06:05:25;;;;;;;29.25;18.08;;;4.40;99.90;;;;;;5024849;28;20033;-82
2021/12/17 06:07:51;;;;;;;38.03;18.65;;;4.40;99.90;;;;;;5040248;28;20095;-82
2021/12/17 06:10:16;;;;;;;35.92;18.50;;;4.40;99.90;;;;;;5005884;28;20467;-83
2021/12/17 06:12:42;;;;;;;31.30;19.00;;;4.40;99.90;;;;;;5028736;28;20076;-82
2021/12/17 06:15:10;;;;;;;30.15;17.65;;;4.40;99.90;;;;;;5009662;28;20060;-83
2021/12/17 06:17:37;;;;;;;27.27;18.05;;;4.30;99.90;;;;;;5009978;28;20064;-82
2021/12/17 06:20:04;;;;;;;29.08;18.50;;;4.40;99.90;;;;;;5028247;28;20032;-80
2021/12/17 06:22:30;;;;;;;28.15;17.65;;;4.40;99.90;;;;;;5007518;28;20037;-80
2021/12/17 06:24:55;;;;;;;38.25;22.73;;;4.30;99.90;;;;;;5021165;28;20045;-81
2021/12/17 06:27:23;;;;;;;32.60;19.52;;;4.30;99.90;;;;;;5007138;28;20076;-80
2021/12/17 06:29:49;;;;;;;32.28;19.63;;;4.30;99.90;;;;;;5005928;28;20370;-81
2021/12/17 06:32:15;;;;;;;28.60;17.55;;;4.20;99.90;;;;;;5021442;28;20034;-80
2021/12/17 06:34:42;;;;;;;30.23;17.73;;;4.10;99.90;;;;;;5023892;28;20033;-80
2021/12/17 06:37:08;;;;;;;28.73;18.35;;;4.00;99.90;;;;;;5028259;28;20478;-79
2021/12/17 06:39:35;;;;;;;35.20;19.58;;;3.90;99.90;;;;;;5007051;28;20069;-81
2021/12/17 06:42:00;;;;;;;36.03;20.67;;;3.80;99.90;;;;;;5023969;28;20038;-82
2021/12/17 06:44:27;;;;;;;34.05;19.20;;;3.80;99.90;;;;;;5023528;28;20045;-81
2021/12/17 06:47:00;;;;;;;30.13;17.48;;;3.80;99.90;;;;;;5025486;28;20029;-80
2021/12/17 06:59:57;;;;;;;36.33;19.98;;;3.60;99.90;;;;;;5047729;28;20018;-80
2021/12/17 07:10:44;;;;;;;40.30;20.98;;;3.80;99.90;;;;;;5039018;28;20124;-80
2021/12/17 07:35:01;;;;;;;35.50;19.52;;;4.10;99.90;;;;;;5047043;28;20117;-81
2021/12/17 07:39:53;;;;;;;34.53;18.52;;;3.90;99.90;;;;;;5040371;28;20068;-84
2021/12/17 07:42:19;;;;;;;35.90;19.30;;;3.80;99.90;;;;;;5044071;28;20053;-82
2021/12/17 07:44:45;;;;;;;32.95;19.45;;;3.70;99.90;;;;;;5030435;28;20045;-79
2021/12/17 07:47:11;;;;;;;32.22;17.73;;;3.80;99.90;;;;;;5022276;28;20029;-80
2021/12/17 07:49:36;;;;;;;34.47;19.98;;;3.80;99.90;;;;;;5016600;28;20068;-80
2021/12/17 07:52:02;;;;;;;34.28;19.83;;;3.70;99.90;;;;;;5016633;28;20033;-80
2021/12/17 07:54:28;;;;;;;44.88;21.52;;;3.40;99.90;;;;;;5028419;28;20038;-81
2021/12/17 07:56:54;;;;;;;36.85;19.35;;;3.20;99.90;;;;;;5026316;28;20044;-80
2021/12/17 07:59:20;;;;;;;38.75;19.35;;;3.00;99.90;;;;;;5029241;28;20452;-80
2021/12/17 08:02:14;;;;;;;40.83;20.83;;;2.90;99.90;;;;;;5027668;28;20064;-81
2021/12/17 08:04:40;;;;;;;35.67;18.50;;;3.00;99.90;;;;;;5037134;28;20293;-80
2021/12/17 08:07:08;;;;;;;33.25;20.08;;;3.20;99.90;;;;;;5018309;28;20063;-80
2021/12/17 08:09:33;;;;;;;33.70;17.83;;;3.20;99.90;;;;;;5029503;28;20048;-81
2021/12/17 08:11:59;;;;;;;36.08;20.50;;;3.30;99.90;;;;;;5018785;28;20037;-81
2021/12/17 08:14:27;;;;;;;29.17;19.13;;;3.30;99.90;;;;;;5022789;28;20186;-80
2021/12/17 08:17:10;;;;;;;38.33;18.77;;;3.50;99.90;;;;;;5012357;28;20057;-81
2021/12/17 08:25:26;;;;;;;32.40;17.75;;;4.00;99.90;;;;;;5038786;28;20473;-82
2021/12/17 08:28:03;;;;;;;32.67;18.45;;;4.10;99.90;;;;;;5046341;28;20029;-80
2021/12/17 08:30:38;;;;;;;29.88;18.38;;;4.10;99.90;;;;;;5032712;28;20044;-83
2021/12/17 08:33:06;;;;;;;34.33;18.10;;;4.00;99.90;;;;;;5020460;28;20046;-83
2021/12/17 08:35:37;;;;;;;33.95;20.17;;;4.10;99.90;;;;;;5031316;28;20041;-81
2021/12/17 08:38:06;;;;;;;31.10;18.20;;;4.30;99.90;;;;;;5028881;28;20069;-82
2021/12/17 08:40:35;;;;;;;27.15;16.77;;;4.40;99.90;;;;;;5028521;28;20033;-83
2021/12/17 08:43:01;;;;;;;30.70;17.23;;;4.40;99.90;;;;;;5027215;28;20616;-83
2021/12/17 08:45:27;;;;;;;28.02;17.42;;;4.40;99.90;;;;;;5023010;28;20041;-82
2021/12/17 08:47:55;;;;;;;29.70;16.63;;;4.40;99.90;;;;;;5008788;28;20421;-84
2021/12/17 08:50:27;;;;;;;29.13;17.13;;;4.40;99.90;;;;;;5026546;28;20060;-83
2021/12/17 08:52:58;;;;;;;28.10;17.35;;;4.50;99.90;;;;;;5009511;28;20034;-84
2021/12/17 08:55:23;;;;;;;31.88;17.20;;;4.60;99.90;;;;;;5040646;28;20025;-82
2021/12/17 08:57:49;;;;;;;31.05;18.20;;;4.70;99.90;;;;;;5022707;28;20029;-82
2021/12/17 09:00:40;;;;;;;;;;;;;;;;;;;;;
2021/12/17 09:03:19;;;;;;;36.53;22.75;;;4.90;99.90;;;;;;5021246;28;20022;-83
2021/12/17 09:05:54;;;;;;;28.77;17.50;;;5.00;99.90;;;;;;5006707;28;20097;-85
2021/12/17 09:08:21;;;;;;;35.75;17.88;;;5.20;99.90;;;;;;5018657;28;20021;-80
2021/12/17 09:11:02;;;;;;;26.42;16.58;;;5.20;99.90;;;;;;5019331;28;20631;-81
2021/12/17 09:13:28;;;;;;;27.00;16.50;;;5.20;99.90;;;;;;5030273;28;20042;-80
2021/12/17 09:15:58;;;;;;;26.52;16.48;;;5.20;99.90;;;;;;5038805;28;20036;-79
2021/12/17 09:18:24;;;;;;;25.75;16.88;;;5.10;99.90;;;;;;5037840;28;20044;-80
2021/12/17 09:20:51;;;;;;;27.83;15.90;;;5.10;99.90;;;;;;5041969;28;20104;-80
2021/12/17 09:23:20;;;;;;;26.40;17.63;;;5.10;99.90;;;;;;5038379;28;20116;-80
2021/12/17 09:25:45;;;;;;;26.90;16.30;;;5.20;99.90;;;;;;5004158;28;20369;-80
2021/12/17 09:28:11;;;;;;;35.92;17.25;;;5.10;99.90;;;;;;5029263;28;20025;-80
2021/12/17 09:30:37;;;;;;;26.58;16.63;;;5.20;99.90;;;;;;5008475;28;20041;-81
2021/12/17 09:33:03;;;;;;;27.27;17.42;;;5.10;99.90;;;;;;5009240;28;20042;-78
2021/12/17 09:35:29;;;;;;;31.02;18.23;;;5.10;99.90;;;;;;5016621;28;20052;-80
2021/12/17 09:37:55;;;;;;;30.13;18.25;;;5.10;99.90;;;;;;5037003;28;20021;-78
2021/12/17 09:40:21;;;;;;;26.50;17.25;;;5.10;99.90;;;;;;5021078;28;20060;-79
2021/12/17 09:42:47;;;;;;;28.15;18.67;;;5.10;99.90;;;;;;5017287;28;20069;-81
2021/12/17 09:45:43;;;;;;;28.58;18.33;;;5.20;99.90;;;;;;5029918;28;20129;-83
2021/12/17 09:48:08;;;;;;;28.70;17.40;;;5.10;99.90;;;;;;4983680;28;20097;-82
2021/12/17 09:50:34;;;;;;;27.83;18.05;;;5.00;99.90;;;;;;5005751;28;20064;-80
2021/12/17 09:53:00;;;;;;;31.80;19.38;;;4.90;99.90;;;;;;5030630;28;20036;-80
2021/12/17 09:58:58;;;;;;;30.27;18.90;;;5.10;99.90;;;;;;5039541;28;20128;-83
2021/12/17 10:01:27;;;;;;;35.35;19.23;;;5.40;99.90;;;;;;5054225;28;20025;-82
2021/12/17 10:07:19;;;;;;;;;;;5.40;99.90;;;;;;5028194;28;20044;-85
2021/12/17 10:09:57;;;;;;;32.10;18.55;;;5.50;99.90;;;;;;5040288;28;19905;-85
2021/12/17 10:12:31;;;;;;;31.52;18.98;;;5.50;99.90;;;;;;5021524;28;20084;-83
2021/12/17 10:15:06;;;;;;;31.20;20.45;;;5.60;99.90;;;;;;5021401;28;20037;-83
2021/12/17 10:17:37;;;;;;;29.13;18.58;;;5.80;99.90;;;;;;5019546;28;20050;-83
2021/12/17 10:20:07;;;;;;;30.05;20.05;;;5.90;99.90;;;;;;5037833;28;20043;-85
2021/12/17 10:22:33;;;;;;;31.48;20.02;;;5.90;99.90;;;;;;5026556;28;20070;-85
2021/12/17 10:25:08;;;;;;;31.58;20.35;;;5.90;99.90;;;;;;5036047;28;20033;-85
2021/12/17 10:27:35;;;;;;;;;;;5.90;99.90;;;;;;5023742;28;20036;-84
2021/12/17 10:30:13;;;;;;;31.50;19.70;;;5.90;99.90;;;;;;5023244;28;19923;-81
2021/12/17 10:32:42;;;;;;;34.42;20.73;;;5.90;99.90;;;;;;5031618;28;20045;-81
2021/12/17 10:35:09;;;;;;;28.42;19.40;;;6.10;99.90;;;;;;5009650;28;20037;-81
2021/12/17 10:37:42;;;;;;;35.40;21.10;;;6.20;99.90;;;;;;5038713;28;20033;-82
2021/12/17 10:40:20;;;;;;;36.53;21.45;;;6.30;99.90;;;;;;5022172;28;20030;-83
2021/12/17 10:42:56;;;;;;;36.35;21.75;;;6.40;99.90;;;;;;5020001;28;20025;-83
2021/12/17 10:45:28;;;;;;;34.08;20.35;;;6.50;99.90;;;;;;5035159;28;20034;-82
2021/12/17 10:51:13;;;;;;;34.53;21.27;;;6.50;99.90;;;;;;5023856;28;20046;-82
2021/12/17 10:53:54;;;;;;;37.72;22.88;;;6.60;99.90;;;;;;5017304;28;20051;-80
2021/12/17 10:56:24;;;;;;;36.13;21.75;;;6.60;99.90;;;;;;5021714;28;20092;-81
2021/12/17 10:58:58;;;;;;;36.03;22.38;;;6.70;99.90;;;;;;5024041;28;20089;-82
2021/12/17 11:01:32;;;;;;;;;;;6.80;99.90;;;;;;5022222;28;20115;-83
2021/12/17 11:04:29;;;;;;;34.70;21.17;;;6.80;99.90;;;;;;5025459;28;20051;-81
2021/12/17 11:07:09;;;;;;;34.47;21.27;;;6.80;99.90;;;;;;5015019;28;20049;-81
2021/12/17 11:09:41;;;;;;;34.03;21.63;;;6.90;99.90;;;;;;5024226;28;20029;-82
2021/12/17 11:12:33;;;;;;;34.92;22.15;;;6.90;99.90;;;;;;5022902;28;20029;-80
2021/12/17 11:15:23;;;;;;;39.72;23.55;;;6.90;99.90;;;;;;5021803;28;20091;-81
2021/12/17 11:17:52;;;;;;;39.03;22.95;;;6.70;99.90;;;;;;5009529;28;20068;-83
2021/12/17 11:20:25;;;;;;;36.10;22.05;;;6.70;99.90;;;;;;5031504;28;20344;-81
2021/12/17 11:22:52;;;;;;;35.10;22.05;;;6.70;99.90;;;;;;5032417;28;20037;-81
2021/12/17 11:25:19;;;;;;;34.80;21.67;;;6.80;99.90;;;;;;5019176;28;20029;-81
2021/12/17 11:27:50;;;;;;;37.78;21.80;;;6.80;99.90;;;;;;5008272;28;20080;-82
2021/12/17 11:30:18;;;;;;;33.95;21.83;;;6.80;99.90;;;;;;5045736;28;20018;-82
2021/12/17 11:32:46;;;;;;;38.17;22.17;;;6.90;99.90;;;;;;5049937;28;20030;-84
2021/12/17 11:35:14;;;;;;;37.28;21.08;;;6.90;99.90;;;;;;5037264;28;20065;-81
2021/12/17 11:37:42;;;;;;;41.13;25.40;;;6.80;99.90;;;;;;5037906;28;20036;-83
2021/12/17 11:40:22;;;;;;;39.38;23.23;;;6.90;99.90;;;;;;5038492;28;20093;-82
2021/12/17 11:43:15;;;;;;;33.53;21.75;;;6.70;99.90;;;;;;5031269;28;20018;-81
2021/12/17 11:45:44;;;;;;;35.08;21.30;;;6.90;99.90;;;;;;5033272;28;20034;-84
2021/12/17 11:48:21;;;;;;;36.05;21.23;;;6.80;99.90;;;;;;5048180;28;20033;-84
2021/12/17 11:51:03;;;;;;;42.70;22.17;;;6.90;99.90;;;;;;5037295;28;20040;-84
2021/12/17 11:53:29;;;;;;;32.85;19.88;;;7.00;99.90;;;;;;5025351;28;20037;-82
2021/12/17 11:55:57;;;;;;;34.40;21.90;;;7.10;99.90;;;;;;5023238;28;20025;-83
2021/12/17 11:58:43;;;;;;;33.58;19.67;;;6.90;99.90;;;;;;5040240;28;20079;-83
2021/12/17 12:01:09;;;;;;;39.20;21.13;;;7.00;99.90;;;;;;5021438;28;20060;-83
2021/12/17 12:03:35;;;;;;;35.20;19.05;;;7.10;99.90;;;;;;5006534;28;20060;-84
2021/12/17 12:06:00;;;;;;;30.17;18.92;;;7.20;99.90;;;;;;5023505;28;20041;-82
2021/12/17 12:08:31;;;;;;;33.22;20.17;;;7.10;99.90;;;;;;5022883;28;20492;-82
2021/12/17 12:11:26;;;;;;;35.45;20.95;;;7.30;99.90;;;;;;5022431;28;20489;-82
2021/12/17 12:13:55;;;;;;;30.83;20.25;;;7.20;99.90;;;;;;5022205;28;20026;-84
2021/12/17 12:16:24;;;;;;;34.95;20.95;;;7.00;99.90;;;;;;5038830;28;20037;-84
2021/12/17 12:19:05;;;;;;;31.90;19.52;;;7.10;99.90;;;;;;5022842;28;20033;-82
2021/12/17 12:21:39;;;;;;;33.30;20.00;;;7.10;99.90;;;;;;5021666;28;20031;-83
2021/12/17 12:24:09;;;;;;;33.58;21.05;;;7.20;99.90;;;;;;5022715;28;20038;-80
2021/12/17 12:26:51;;;;;;;34.45;21.33;;;7.10;99.90;;;;;;5021409;28;20065;-81
2021/12/17 12:29:23;;;;;;;31.17;19.27;;;7.00;99.90;;;;;;5037278;28;20625;-78
2021/12/17 12:31:48;;;;;;;34.80;20.20;;;7.10;99.90;;;;;;5019974;28;20374;-81
2021/12/17 12:34:21;;;;;;;32.40;20.70;;;7.10;99.90;;;;;;5013819;28;20020;-79
2021/12/17 12:37:01;;;;;;;36.30;21.13;;;7.00;99.90;;;;;;5019445;28;20126;-80
2021/12/17 12:39:36;;;;;;;32.75;20.15;;;7.00;99.90;;;;;;5020840;28;20041;-80
2021/12/17 12:42:16;;;;;;;28.30;18.42;;;7.10;99.90;;;;;;5038049;28;20029;-79
2021/12/17 12:44:42;;;;;;;30.83;18.13;;;7.20;99.90;;;;;;5021314;28;20099;-79
2021/12/17 12:47:08;;;;;;;33.28;19.05;;;7.20;99.90;;;;;;5020776;28;20504;-80
2021/12/17 12:49:51;;;;;;;29.63;19.33;;;7.20;99.90;;;;;;5021526;28;20040;-80
2021/12/17 12:52:31;;;;;;;31.05;19.05;;;7.20;99.90;;;;;;5035565;28;20042;-79
2021/12/17 12:55:20;;;;;;;28.75;17.27;;;7.20;99.90;;;;;;5024158;28;20033;-79
2021/12/17 12:57:59;;;;;;;30.65;18.83;;;7.30;99.90;;;;;;5023497;28;20029;-80
2021/12/17 13:00:36;;;;;;;31.45;16.88;;;7.60;99.90;;;;;;5025036;28;20029;-80
2021/12/17 13:03:03;;;;;;;26.98;17.63;;;7.50;99.90;;;;;;5010207;28;20042;-80
2021/12/17 13:05:30;;;;;;;26.77;16.73;;;7.50;99.90;;;;;;5009905;28;20037;-79
2021/12/17 13:08:01;;;;;;;25.88;16.83;;;7.70;99.90;;;;;;5018874;28;20057;-79
2021/12/17 13:10:28;;;;;;;30.20;18.15;;;7.60;99.90;;;;;;5038567;28;20034;-79
2021/12/17 13:13:02;;;;;;;33.28;17.48;;;7.50;99.90;;;;;;5020392;28;20057;-79
2021/12/17 13:15:39;;;;;;;;;;;7.50;99.90;;;;;;5023040;28;20045;-80
2021/12/17 13:21:20;;;;;;;23.83;16.05;;;7.60;99.90;;;;;;5036335;28;20033;-81
2021/12/17 13:23:54;;;;;;;24.25;16.27;;;7.60;99.90;;;;;;5020725;28;20436;-80
2021/12/17 13:26:24;;;;;;;;;;;7.60;99.90;;;;;;5021974;28;20112;-81
2021/12/17 13:29:03;;;;;;;22.50;13.93;;;7.90;99.90;;;;;;5021246;28;19997;-80
2021/12/17 13:31:30;;;;;;;23.85;14.40;;;7.90;99.90;;;;;;5022156;28;20030;-80
2021/12/17 13:33:55;;;;;;;17.30;10.88;;;7.70;99.90;;;;;;5039014;28;20025;-81
2021/12/17 13:36:23;;;;;;;17.48;10.95;;;7.70;99.90;;;;;;5038003;28;20033;-80
2021/12/17 13:38:56;;;;;;;18.92;11.90;;;7.70;99.90;;;;;;5020674;28;20124;-80
2021/12/17 13:41:36;;;;;;;20.70;12.18;;;7.70;99.90;;;;;;5022040;28;20030;-80
2021/12/17 13:44:02;;;;;;;20.60;12.10;;;7.80;99.90;;;;;;5038079;28;20037;-81
2021/12/17 13:46:28;;;;;;;16.15;10.80;;;7.90;99.90;;;;;;5019356;28;20084;-81
2021/12/17 13:48:54;;;;;;;17.35;11.20;;;8.00;99.90;;;;;;5020619;28;20041;-84
2021/12/17 13:51:20;;;;;;;16.88;11.27;;;8.10;99.90;;;;;;5023463;28;20033;-82
2021/12/17 13:53:46;;;;;;;24.45;12.75;;;7.90;99.90;;;;;;5033641;28;20025;-84
2021/12/17 13:56:17;;;;;;;18.95;10.68;;;7.90;99.90;;;;;;5054411;28;20029;-82
2021/12/17 13:58:43;;;;;;;13.93;9.60;;;8.10;99.90;;;;;;5056284;28;20017;-85
2021/12/17 14:01:08;;;;;;;12.20;8.00;;;8.10;99.90;;;;;;5040659;28;20086;-83
2021/12/17 14:03:38;;;;;;;13.60;9.02;;;8.10;99.90;;;;;;5030798;28;20030;-85
2021/12/17 14:06:23;;;;;;;10.77;7.45;;;8.00;99.90;;;;;;5043587;28;20009;-82
2021/12/17 14:08:51;;;;;;;12.48;8.43;;;8.10;99.90;;;;;;5037556;28;20022;-83
2021/12/17 14:11:25;;;;;;;14.35;8.43;;;8.10;99.90;;;;;;5035778;28;20044;-85
2021/12/17 14:13:51;;;;;;;12.52;8.65;;;8.20;99.90;;;;;;5042984;28;20045;-83
2021/12/17 14:16:28;;;;;;;14.90;9.25;;;8.10;99.90;;;;;;5034280;28;20045;-86
2021/12/17 14:18:59;;;;;;;9.48;7.30;;;8.10;99.90;;;;;;5025050;28;20041;-84
2021/12/17 14:21:30;;;;;;;10.65;7.32;;;8.20;99.90;;;;;;5024499;28;20045;-84
2021/12/17 14:23:56;;;;;;;12.15;7.95;;;8.20;99.90;;;;;;5024744;28;20493;-83
2021/12/17 14:26:31;;;;;;;11.55;6.90;;;8.10;99.90;;;;;;5023127;28;20057;-81
2021/12/17 14:29:11;;;;;;;13.38;7.68;;;8.00;99.90;;;;;;5040627;28;20123;-83
2021/12/17 14:31:37;;;;;;;11.57;7.63;;;8.00;99.90;;;;;;5021986;28;20057;-83
2021/12/17 14:34:03;;;;;;;10.68;7.28;;;8.00;99.90;;;;;;5027944;28;20393;-87
2021/12/17 14:36:41;;;;;;;12.73;7.93;;;8.00;99.90;;;;;;5025242;28;20084;-84
2021/12/17 14:39:11;;;;;;;12.45;8.57;;;8.20;99.90;;;;;;5023584;28;20044;-84
2021/12/17 14:41:49;;;;;;;10.43;7.55;;;8.20;99.90;;;;;;5025456;28;20037;-85
2021/12/17 14:47:11;;;;;;;13.77;8.07;;;8.10;99.90;;;;;;5042447;28;20033;-84
2021/12/17 14:59:21;;;;;;;10.65;6.78;;;8.20;99.90;;;;;;5042362;28;20022;-85
2021/12/17 15:00:51;;;;;;;10.05;6.40;;;8.10;99.90;;;;;;5020589;28;20029;-84
2021/12/17 15:05:45;;;;;;;11.13;7.70;;;8.10;99.90;;;;;;5040971;28;20022;-83
2021/12/17 15:08:11;;;;;;;9.38;6.50;;;8.00;99.90;;;;;;5023550;28;20099;-83
2021/12/17 15:10:36;;;;;;;10.63;6.50;;;8.10;99.90;;;;;;5022679;28;20025;-83
2021/12/17 15:13:03;;;;;;;11.02;7.28;;;8.20;99.90;;;;;;5039671;28;20033;-82
2021/12/17 15:15:37;;;;;;;10.70;6.40;;;8.10;99.90;;;;;;5018274;28;20444;-83
2021/12/17 15:18:14;;;;;;;10.90;6.78;;;8.10;99.90;;;;;;5023422;28;20029;-82
2021/12/17 15:20:42;;;;;;;11.23;7.53;;;8.10;99.90;;;;;;5022170;28;20033;-80
2021/12/17 15:23:08;;;;;;;13.07;6.90;;;8.10;99.90;;;;;;5021484;28;20112;-79
2021/12/17 15:25:36;;;;;;;8.38;6.38;;;8.10;99.90;;;;;;5021563;28;20389;-78
2021/12/17 15:28:03;;;;;;;12.25;7.30;;;8.20;99.90;;;;;;5022532;28;20498;-79
2021/12/17 15:30:36;;;;;;;12.57;7.10;;;8.20;99.90;;;;;;5024989;28;20100;-79
2021/12/17 15:33:02;;;;;;;10.73;6.75;;;8.20;99.90;;;;;;5024522;28;20035;-81
2021/12/17 15:35:29;;;;;;;11.13;6.78;;;8.10;99.90;;;;;;5042644;28;20057;-79
2021/12/17 15:37:57;;;;;;;12.57;7.70;;;8.00;99.90;;;;;;5040854;28;20017;-79
2021/12/17 15:40:24;;;;;;;10.75;7.68;;;8.10;99.90;;;;;;5024208;28;20389;-80
2021/12/17 15:42:50;;;;;;;12.98;7.93;;;8.20;99.90;;;;;;5012003;28;20060;-78
2021/12/17 15:45:17;;;;;;;11.27;7.35;;;8.20;99.90;;;;;;5025237;28;20029;-79
2021/12/17 15:47:53;;;;;;;13.48;9.15;;;8.20;99.90;;;;;;5025686;28;20139;-80
2021/12/17 15:50:19;;;;;;;12.80;9.75;;;8.30;99.90;;;;;;5023553;28;20087;-82
2021/12/17 15:52:45;;;;;;;15.43;10.43;;;8.30;99.90;;;;;;5023114;28;20030;-82
2021/12/17 15:55:12;;;;;;;16.10;10.48;;;8.40;99.90;;;;;;5022777;28;20025;-83
2021/12/17 15:57:38;;;;;;;15.90;10.75;;;8.20;99.90;;;;;;5023295;28;20032;-84
2021/12/17 16:00:05;;;;;;;16.90;11.82;;;8.20;99.90;;;;;;5023387;28;20112;-85
2021/12/17 16:02:31;;;;;;;15.80;10.50;;;8.20;99.90;;;;;;5022495;28;20087;-84
2021/12/17 16:04:57;;;;;;;17.58;10.50;;;8.20;99.90;;;;;;5024152;28;20112;-84
2021/12/17 16:07:23;;;;;;;12.38;8.48;;;8.30;99.90;;;;;;5023576;28;20095;-85
2021/12/17 16:18:11;;;;;;;16.02;9.52;;;8.00;99.90;;;;;;5044173;28;20285;-83